sensor_id;sensor_type;location;lat;lon;timestamp;P1;durP1;ratioP1;P2;durP2;ratioP2
73684;SDS011;61985;51.070;14.064;2023-08-24T00:02:01;7.18;;;5.05;;
73684;SDS011;61985;51.070;14.064;2023-08-24T00:04:27;6.82;;;4.93;;
73684;SDS011;61985;51.070;14.064;2023-08-24T00:06:53;6.53;;;4.63;;
73684;SDS011;61985;51.070;14.064;2023-08-24T00:09:18;7.40;;;4.88;;
73684;SDS011;61985;51.070;14.064;2023-08-24T00:11:44;9.88;;;4.82;;
73684;SDS011;61985;51.070;14.064;2023-08-24T00:14:09;6.28;;;4.85;;
73684;SDS011;61985;51.070;14.064;2023-08-24T00:16:35;7.75;;;4.72;;
73684;SDS011;61985;51.070;14.064;2023-08-24T00:19:00;6.70;;;4.30;;
73684;SDS011;61985;51.070;14.064;2023-08-24T00:21:26;7.00;;;4.60;;
73684;SDS011;61985;51.070;14.064;2023-08-24T00:23:51;7.63;;;5.03;;
73684;SDS011;61985;51.070;14.064;2023-08-24T00:26:17;6.85;;;4.60;;
73684;SDS011;61985;51.070;14.064;2023-08-24T00:28:43;7.60;;;5.07;;
73684;SDS011;61985;51.070;14.064;2023-08-24T00:31:09;6.38;;;4.60;;
73684;SDS011;61985;51.070;14.064;2023-08-24T00:33:34;6.88;;;5.13;;
73684;SDS011;61985;51.070;14.064;2023-08-24T00:36:00;7.13;;;5.13;;
73684;SDS011;61985;51.070;14.064;2023-08-24T00:38:26;9.35;;;5.07;;
73684;SDS011;61985;51.070;14.064;2023-08-24T00:40:51;8.50;;;5.00;;
73684;SDS011;61985;51.070;14.064;2023-08-24T00:43:18;6.55;;;4.80;;
73684;SDS011;61985;51.070;14.064;2023-08-24T00:45:48;10.90;;;5.32;;
73684;SDS011;61985;51.070;14.064;2023-08-24T00:48:19;8.02;;;4.50;;
73684;SDS011;61985;51.070;14.064;2023-08-24T00:50:50;6.65;;;4.60;;
73684;SDS011;61985;51.070;14.064;2023-08-24T00:53:17;7.18;;;4.85;;
73684;SDS011;61985;51.070;14.064;2023-08-24T00:55:44;7.72;;;4.85;;
73684;SDS011;61985;51.070;14.064;2023-08-24T00:58:09;10.60;;;5.35;;
73684;SDS011;61985;51.070;14.064;2023-08-24T01:00:35;6.70;;;4.30;;
73684;SDS011;61985;51.070;14.064;2023-08-24T01:03:01;6.55;;;4.78;;
73684;SDS011;61985;51.070;14.064;2023-08-24T01:05:26;7.75;;;5.15;;
73684;SDS011;61985;51.070;14.064;2023-08-24T01:07:51;7.70;;;4.97;;
73684;SDS011;61985;51.070;14.064;2023-08-24T01:10:17;9.38;;;5.13;;
73684;SDS011;61985;51.070;14.064;2023-08-24T01:18:20;5.28;;;4.20;;
73684;SDS011;61985;51.070;14.064;2023-08-24T01:20:48;6.03;;;4.53;;
73684;SDS011;61985;51.070;14.064;2023-08-24T01:28:19;7.40;;;4.80;;
73684;SDS011;61985;51.070;14.064;2023-08-24T01:30:46;8.70;;;5.07;;
73684;SDS011;61985;51.070;14.064;2023-08-24T01:33:12;7.57;;;4.85;;
73684;SDS011;61985;51.070;14.064;2023-08-24T01:35:38;10.15;;;5.10;;
73684;SDS011;61985;51.070;14.064;2023-08-24T01:38:04;6.15;;;4.93;;
73684;SDS011;61985;51.070;14.064;2023-08-24T01:41:33;10.50;;;5.78;;
73684;SDS011;61985;51.070;14.064;2023-08-24T01:43:35;8.23;;;5.10;;
73684;SDS011;61985;51.070;14.064;2023-08-24T01:46:04;6.43;;;4.70;;
73684;SDS011;61985;51.070;14.064;2023-08-24T01:48:32;5.95;;;4.40;;
73684;SDS011;61985;51.070;14.064;2023-08-24T01:50:58;6.25;;;4.63;;
73684;SDS011;61985;51.070;14.064;2023-08-24T01:53:25;7.93;;;5.03;;
73684;SDS011;61985;51.070;14.064;2023-08-24T01:55:51;10.20;;;5.03;;
73684;SDS011;61985;51.070;14.064;2023-08-24T01:58:18;6.97;;;5.20;;
73684;SDS011;61985;51.070;14.064;2023-08-24T02:00:43;6.05;;;4.82;;
73684;SDS011;61985;51.070;14.064;2023-08-24T02:03:09;7.18;;;5.07;;
73684;SDS011;61985;51.070;14.064;2023-08-24T02:05:34;7.88;;;4.80;;
73684;SDS011;61985;51.070;14.064;2023-08-24T02:08:00;9.80;;;5.88;;
73684;SDS011;61985;51.070;14.064;2023-08-24T02:10:25;6.70;;;4.50;;
73684;SDS011;61985;51.070;14.064;2023-08-24T02:12:51;6.13;;;4.40;;
73684;SDS011;61985;51.070;14.064;2023-08-24T02:15:16;8.82;;;5.07;;
73684;SDS011;61985;51.070;14.064;2023-08-24T02:17:42;7.22;;;4.85;;
73684;SDS011;61985;51.070;14.064;2023-08-24T02:20:07;7.90;;;4.70;;
73684;SDS011;61985;51.070;14.064;2023-08-24T02:22:34;6.85;;;5.13;;
73684;SDS011;61985;51.070;14.064;2023-08-24T02:24:59;9.98;;;5.57;;
73684;SDS011;61985;51.070;14.064;2023-08-24T02:27:26;10.40;;;4.60;;
73684;SDS011;61985;51.070;14.064;2023-08-24T02:29:51;7.22;;;4.63;;
73684;SDS011;61985;51.070;14.064;2023-08-24T02:32:17;6.13;;;4.45;;
73684;SDS011;61985;51.070;14.064;2023-08-24T02:34:42;6.40;;;4.60;;
73684;SDS011;61985;51.070;14.064;2023-08-24T02:37:07;7.35;;;4.78;;
73684;SDS011;61985;51.070;14.064;2023-08-24T02:39:33;8.73;;;5.50;;
73684;SDS011;61985;51.070;14.064;2023-08-24T02:41:58;7.85;;;5.68;;
73684;SDS011;61985;51.070;14.064;2023-08-24T02:44:23;9.82;;;5.30;;
73684;SDS011;61985;51.070;14.064;2023-08-24T02:46:49;7.32;;;5.22;;
73684;SDS011;61985;51.070;14.064;2023-08-24T02:49:14;6.25;;;4.60;;
73684;SDS011;61985;51.070;14.064;2023-08-24T02:51:40;7.25;;;5.00;;
73684;SDS011;61985;51.070;14.064;2023-08-24T02:54:06;9.55;;;5.55;;
73684;SDS011;61985;51.070;14.064;2023-08-24T02:56:31;8.43;;;5.30;;
73684;SDS011;61985;51.070;14.064;2023-08-24T02:58:56;7.28;;;5.05;;
73684;SDS011;61985;51.070;14.064;2023-08-24T03:01:22;8.48;;;5.15;;
73684;SDS011;61985;51.070;14.064;2023-08-24T03:03:47;7.20;;;5.22;;
73684;SDS011;61985;51.070;14.064;2023-08-24T03:06:13;7.47;;;5.13;;
73684;SDS011;61985;51.070;14.064;2023-08-24T03:08:38;8.15;;;5.13;;
73684;SDS011;61985;51.070;14.064;2023-08-24T03:11:03;8.45;;;4.78;;
73684;SDS011;61985;51.070;14.064;2023-08-24T03:13:29;8.07;;;4.72;;
73684;SDS011;61985;51.070;14.064;2023-08-24T03:15:55;9.18;;;4.68;;
73684;SDS011;61985;51.070;14.064;2023-08-24T03:18:21;9.65;;;5.20;;
73684;SDS011;61985;51.070;14.064;2023-08-24T03:20:47;7.53;;;4.65;;
73684;SDS011;61985;51.070;14.064;2023-08-24T03:23:13;9.23;;;5.30;;
73684;SDS011;61985;51.070;14.064;2023-08-24T03:25:40;6.35;;;4.80;;
73684;SDS011;61985;51.070;14.064;2023-08-24T03:28:06;8.23;;;5.20;;
73684;SDS011;61985;51.070;14.064;2023-08-24T03:30:36;7.93;;;5.00;;
73684;SDS011;61985;51.070;14.064;2023-08-24T03:33:04;9.02;;;4.95;;
73684;SDS011;61985;51.070;14.064;2023-08-24T03:35:33;9.20;;;5.03;;
73684;SDS011;61985;51.070;14.064;2023-08-24T03:37:58;8.43;;;5.13;;
73684;SDS011;61985;51.070;14.064;2023-08-24T03:40:24;9.65;;;5.20;;
73684;SDS011;61985;51.070;14.064;2023-08-24T03:42:50;6.22;;;4.80;;
73684;SDS011;61985;51.070;14.064;2023-08-24T03:45:15;8.02;;;5.10;;
73684;SDS011;61985;51.070;14.064;2023-08-24T03:47:41;6.28;;;4.88;;
73684;SDS011;61985;51.070;14.064;2023-08-24T03:50:06;8.13;;;5.05;;
73684;SDS011;61985;51.070;14.064;2023-08-24T03:52:32;8.43;;;4.78;;
73684;SDS011;61985;51.070;14.064;2023-08-24T03:54:57;7.78;;;4.93;;
73684;SDS011;61985;51.070;14.064;2023-08-24T03:57:22;7.82;;;5.05;;
73684;SDS011;61985;51.070;14.064;2023-08-24T03:59:48;8.82;;;5.18;;
73684;SDS011;61985;51.070;14.064;2023-08-24T04:02:14;7.60;;;5.18;;
73684;SDS011;61985;51.070;14.064;2023-08-24T04:04:39;9.43;;;5.45;;
73684;SDS011;61985;51.070;14.064;2023-08-24T04:07:04;8.05;;;5.57;;
73684;SDS011;61985;51.070;14.064;2023-08-24T04:09:30;8.77;;;5.35;;
73684;SDS011;61985;51.070;14.064;2023-08-24T04:11:55;9.30;;;5.13;;
73684;SDS011;61985;51.070;14.064;2023-08-24T04:14:21;9.30;;;5.90;;
73684;SDS011;61985;51.070;14.064;2023-08-24T04:16:46;6.57;;;4.90;;
73684;SDS011;61985;51.070;14.064;2023-08-24T04:19:12;9.10;;;5.72;;
73684;SDS011;61985;51.070;14.064;2023-08-24T04:21:38;7.63;;;5.28;;
73684;SDS011;61985;51.070;14.064;2023-08-24T04:24:03;8.65;;;6.15;;
73684;SDS011;61985;51.070;14.064;2023-08-24T04:26:29;9.23;;;5.57;;
73684;SDS011;61985;51.070;14.064;2023-08-24T04:28:55;7.22;;;5.40;;
73684;SDS011;61985;51.070;14.064;2023-08-24T04:31:20;8.05;;;5.88;;
73684;SDS011;61985;51.070;14.064;2023-08-24T04:33:46;7.93;;;6.00;;
73684;SDS011;61985;51.070;14.064;2023-08-24T04:36:11;10.90;;;4.90;;
73684;SDS011;61985;51.070;14.064;2023-08-24T04:38:36;9.40;;;5.70;;
73684;SDS011;61985;51.070;14.064;2023-08-24T04:41:02;8.75;;;6.07;;
73684;SDS011;61985;51.070;14.064;2023-08-24T04:43:32;10.07;;;5.53;;
73684;SDS011;61985;51.070;14.064;2023-08-24T04:45:58;8.40;;;5.55;;
73684;SDS011;61985;51.070;14.064;2023-08-24T04:48:24;10.35;;;5.22;;
73684;SDS011;61985;51.070;14.064;2023-08-24T04:50:51;8.50;;;6.07;;
73684;SDS011;61985;51.070;14.064;2023-08-24T04:53:19;8.48;;;5.85;;
73684;SDS011;61985;51.070;14.064;2023-08-24T04:55:45;12.05;;;6.03;;
73684;SDS011;61985;51.070;14.064;2023-08-24T04:58:11;10.13;;;5.82;;
73684;SDS011;61985;51.070;14.064;2023-08-24T05:00:37;9.68;;;5.93;;
73684;SDS011;61985;51.070;14.064;2023-08-24T05:03:06;9.48;;;5.72;;
73684;SDS011;61985;51.070;14.064;2023-08-24T05:05:32;7.68;;;5.80;;
73684;SDS011;61985;51.070;14.064;2023-08-24T05:07:58;9.70;;;6.70;;
73684;SDS011;61985;51.070;14.064;2023-08-24T05:10:24;11.68;;;6.30;;
73684;SDS011;61985;51.070;14.064;2023-08-24T05:12:50;9.40;;;6.85;;
73684;SDS011;61985;51.070;14.064;2023-08-24T05:15:16;10.15;;;6.47;;
73684;SDS011;61985;51.070;14.064;2023-08-24T05:17:41;8.10;;;6.38;;
73684;SDS011;61985;51.070;14.064;2023-08-24T05:20:07;9.90;;;6.85;;
73684;SDS011;61985;51.070;14.064;2023-08-24T05:22:35;9.75;;;6.55;;
73684;SDS011;61985;51.070;14.064;2023-08-24T05:25:01;9.63;;;6.88;;
73684;SDS011;61985;51.070;14.064;2023-08-24T05:27:26;9.00;;;6.30;;
73684;SDS011;61985;51.070;14.064;2023-08-24T05:29:51;10.63;;;6.70;;
73684;SDS011;61985;51.070;14.064;2023-08-24T05:32:17;12.30;;;6.78;;
73684;SDS011;61985;51.070;14.064;2023-08-24T05:34:42;12.90;;;6.53;;
73684;SDS011;61985;51.070;14.064;2023-08-24T05:37:07;10.77;;;6.53;;
73684;SDS011;61985;51.070;14.064;2023-08-24T05:39:33;9.15;;;6.57;;
73684;SDS011;61985;51.070;14.064;2023-08-24T05:41:58;10.35;;;6.20;;
73684;SDS011;61985;51.070;14.064;2023-08-24T05:44:24;8.60;;;5.90;;
73684;SDS011;61985;51.070;14.064;2023-08-24T05:46:49;8.38;;;5.82;;
73684;SDS011;61985;51.070;14.064;2023-08-24T05:49:14;11.90;;;5.80;;
73684;SDS011;61985;51.070;14.064;2023-08-24T05:51:40;7.18;;;5.07;;
73684;SDS011;61985;51.070;14.064;2023-08-24T05:54:05;7.05;;;4.72;;
73684;SDS011;61985;51.070;14.064;2023-08-24T05:56:30;7.20;;;4.95;;
73684;SDS011;61985;51.070;14.064;2023-08-24T05:58:57;6.55;;;4.65;;
73684;SDS011;61985;51.070;14.064;2023-08-24T06:01:23;7.65;;;4.57;;
73684;SDS011;61985;51.070;14.064;2023-08-24T06:03:48;11.20;;;5.07;;
73684;SDS011;61985;51.070;14.064;2023-08-24T06:06:14;12.52;;;4.78;;
73684;SDS011;61985;51.070;14.064;2023-08-24T06:08:40;12.05;;;5.05;;
73684;SDS011;61985;51.070;14.064;2023-08-24T06:11:05;7.85;;;4.93;;
73684;SDS011;61985;51.070;14.064;2023-08-24T06:13:30;12.75;;;4.60;;
73684;SDS011;61985;51.070;14.064;2023-08-24T06:15:56;8.00;;;5.05;;
73684;SDS011;61985;51.070;14.064;2023-08-24T06:18:21;10.57;;;5.40;;
73684;SDS011;61985;51.070;14.064;2023-08-24T06:20:47;8.27;;;4.85;;
73684;SDS011;61985;51.070;14.064;2023-08-24T06:23:14;9.93;;;5.15;;
73684;SDS011;61985;51.070;14.064;2023-08-24T06:25:42;7.75;;;4.93;;
73684;SDS011;61985;51.070;14.064;2023-08-24T06:28:08;6.35;;;4.32;;
73684;SDS011;61985;51.070;14.064;2023-08-24T06:30:40;11.63;;;5.38;;
73684;SDS011;61985;51.070;14.064;2023-08-24T06:33:07;8.52;;;4.90;;
73684;SDS011;61985;51.070;14.064;2023-08-24T06:35:35;10.00;;;4.40;;
73684;SDS011;61985;51.070;14.064;2023-08-24T06:38:01;9.40;;;4.65;;
73684;SDS011;61985;51.070;14.064;2023-08-24T06:40:28;8.75;;;4.60;;
73684;SDS011;61985;51.070;14.064;2023-08-24T06:42:53;7.93;;;4.70;;
73684;SDS011;61985;51.070;14.064;2023-08-24T06:45:19;8.15;;;4.28;;
73684;SDS011;61985;51.070;14.064;2023-08-24T06:47:44;6.28;;;3.95;;
73684;SDS011;61985;51.070;14.064;2023-08-24T06:50:10;5.93;;;4.00;;
73684;SDS011;61985;51.070;14.064;2023-08-24T06:52:36;6.68;;;4.13;;
73684;SDS011;61985;51.070;14.064;2023-08-24T06:55:01;10.20;;;4.38;;
73684;SDS011;61985;51.070;14.064;2023-08-24T06:57:28;7.65;;;4.10;;
73684;SDS011;61985;51.070;14.064;2023-08-24T06:59:53;7.97;;;4.25;;
73684;SDS011;61985;51.070;14.064;2023-08-24T07:02:19;8.65;;;4.10;;
73684;SDS011;61985;51.070;14.064;2023-08-24T07:04:44;6.65;;;4.07;;
73684;SDS011;61985;51.070;14.064;2023-08-24T07:07:10;10.65;;;4.32;;
73684;SDS011;61985;51.070;14.064;2023-08-24T07:09:35;8.38;;;4.40;;
73684;SDS011;61985;51.070;14.064;2023-08-24T07:12:01;8.73;;;4.00;;
73684;SDS011;61985;51.070;14.064;2023-08-24T07:14:27;6.10;;;3.78;;
73684;SDS011;61985;51.070;14.064;2023-08-24T07:16:52;10.38;;;4.15;;
73684;SDS011;61985;51.070;14.064;2023-08-24T07:19:18;10.18;;;4.15;;
73684;SDS011;61985;51.070;14.064;2023-08-24T07:21:43;8.27;;;4.40;;
73684;SDS011;61985;51.070;14.064;2023-08-24T07:24:08;7.47;;;3.90;;
73684;SDS011;61985;51.070;14.064;2023-08-24T07:26:34;7.65;;;3.70;;
73684;SDS011;61985;51.070;14.064;2023-08-24T07:28:59;7.18;;;3.28;;
73684;SDS011;61985;51.070;14.064;2023-08-24T07:31:25;8.57;;;3.85;;
73684;SDS011;61985;51.070;14.064;2023-08-24T07:33:50;4.78;;;3.40;;
73684;SDS011;61985;51.070;14.064;2023-08-24T07:36:15;6.68;;;3.50;;
73684;SDS011;61985;51.070;14.064;2023-08-24T07:38:41;5.65;;;3.80;;
73684;SDS011;61985;51.070;14.064;2023-08-24T07:41:06;8.85;;;3.45;;
73684;SDS011;61985;51.070;14.064;2023-08-24T07:43:32;9.65;;;4.25;;
73684;SDS011;61985;51.070;14.064;2023-08-24T07:45:58;6.18;;;3.47;;
73684;SDS011;61985;51.070;14.064;2023-08-24T07:48:25;7.38;;;3.60;;
73684;SDS011;61985;51.070;14.064;2023-08-24T07:50:50;7.57;;;3.90;;
73684;SDS011;61985;51.070;14.064;2023-08-24T07:53:16;5.50;;;3.50;;
73684;SDS011;61985;51.070;14.064;2023-08-24T07:55:41;6.15;;;3.30;;
73684;SDS011;61985;51.070;14.064;2023-08-24T07:58:08;7.10;;;3.70;;
73684;SDS011;61985;51.070;14.064;2023-08-24T08:00:33;7.15;;;3.40;;
73684;SDS011;61985;51.070;14.064;2023-08-24T08:02:59;5.78;;;3.28;;
73684;SDS011;61985;51.070;14.064;2023-08-24T08:05:25;5.88;;;3.30;;
73684;SDS011;61985;51.070;14.064;2023-08-24T08:07:50;5.88;;;3.60;;
73684;SDS011;61985;51.070;14.064;2023-08-24T08:10:16;8.82;;;3.40;;
73684;SDS011;61985;51.070;14.064;2023-08-24T08:12:42;6.72;;;3.30;;
73684;SDS011;61985;51.070;14.064;2023-08-24T08:15:08;5.32;;;3.35;;
73684;SDS011;61985;51.070;14.064;2023-08-24T08:17:33;37.47;;;4.72;;
73684;SDS011;61985;51.070;14.064;2023-08-24T08:19:59;6.00;;;3.53;;
73684;SDS011;61985;51.070;14.064;2023-08-24T08:22:24;5.78;;;3.75;;
73684;SDS011;61985;51.070;14.064;2023-08-24T08:24:53;3.95;;;3.03;;
73684;SDS011;61985;51.070;14.064;2023-08-24T08:27:21;5.80;;;2.92;;
73684;SDS011;61985;51.070;14.064;2023-08-24T08:29:47;6.20;;;3.30;;
73684;SDS011;61985;51.070;14.064;2023-08-24T08:32:13;5.13;;;3.17;;
73684;SDS011;61985;51.070;14.064;2023-08-24T08:34:38;5.22;;;2.97;;
73684;SDS011;61985;51.070;14.064;2023-08-24T08:37:04;6.22;;;3.08;;
73684;SDS011;61985;51.070;14.064;2023-08-24T08:39:29;8.27;;;4.03;;
73684;SDS011;61985;51.070;14.064;2023-08-24T08:41:55;6.97;;;3.47;;
73684;SDS011;61985;51.070;14.064;2023-08-24T08:44:20;5.05;;;3.20;;
73684;SDS011;61985;51.070;14.064;2023-08-24T08:46:48;5.57;;;3.10;;
73684;SDS011;61985;51.070;14.064;2023-08-24T08:49:15;9.68;;;3.08;;
73684;SDS011;61985;51.070;14.064;2023-08-24T08:51:42;11.43;;;3.35;;
73684;SDS011;61985;51.070;14.064;2023-08-24T08:54:08;7.18;;;3.15;;
73684;SDS011;61985;51.070;14.064;2023-08-24T08:56:34;11.10;;;3.30;;
73684;SDS011;61985;51.070;14.064;2023-08-24T08:59:00;6.88;;;2.90;;
73684;SDS011;61985;51.070;14.064;2023-08-24T09:01:27;5.00;;;2.90;;
73684;SDS011;61985;51.070;14.064;2023-08-24T09:03:53;10.00;;;3.15;;
73684;SDS011;61985;51.070;14.064;2023-08-24T09:06:18;5.13;;;3.13;;
73684;SDS011;61985;51.070;14.064;2023-08-24T09:08:44;7.07;;;3.08;;
73684;SDS011;61985;51.070;14.064;2023-08-24T09:11:10;6.63;;;2.85;;
73684;SDS011;61985;51.070;14.064;2023-08-24T09:13:36;4.88;;;2.88;;
73684;SDS011;61985;51.070;14.064;2023-08-24T09:16:05;5.55;;;2.95;;
73684;SDS011;61985;51.070;14.064;2023-08-24T09:18:39;11.00;;;3.28;;
73684;SDS011;61985;51.070;14.064;2023-08-24T09:21:11;7.38;;;2.80;;
73684;SDS011;61985;51.070;14.064;2023-08-24T09:23:38;7.82;;;2.88;;
73684;SDS011;61985;51.070;14.064;2023-08-24T09:26:10;5.28;;;2.60;;
73684;SDS011;61985;51.070;14.064;2023-08-24T09:28:35;6.15;;;2.90;;
73684;SDS011;61985;51.070;14.064;2023-08-24T09:31:04;5.13;;;2.58;;
73684;SDS011;61985;51.070;14.064;2023-08-24T09:33:29;5.00;;;2.60;;
73684;SDS011;61985;51.070;14.064;2023-08-24T09:35:55;5.72;;;2.60;;
73684;SDS011;61985;51.070;14.064;2023-08-24T09:38:26;6.15;;;2.88;;
73684;SDS011;61985;51.070;14.064;2023-08-24T09:40:52;6.75;;;3.05;;
73684;SDS011;61985;51.070;14.064;2023-08-24T09:43:18;5.57;;;2.60;;
73684;SDS011;61985;51.070;14.064;2023-08-24T09:45:56;4.55;;;2.42;;
73684;SDS011;61985;51.070;14.064;2023-08-24T09:48:22;4.30;;;2.55;;
73684;SDS011;61985;51.070;14.064;2023-08-24T09:50:49;6.60;;;2.65;;
73684;SDS011;61985;51.070;14.064;2023-08-24T09:53:22;5.78;;;2.70;;
73684;SDS011;61985;51.070;14.064;2023-08-24T09:55:49;5.50;;;2.58;;
73684;SDS011;61985;51.070;14.064;2023-08-24T09:58:20;6.13;;;2.95;;
73684;SDS011;61985;51.070;14.064;2023-08-24T10:00:46;6.32;;;2.70;;
73684;SDS011;61985;51.070;14.064;2023-08-24T10:03:14;5.68;;;2.55;;
73684;SDS011;61985;51.070;14.064;2023-08-24T10:05:45;3.60;;;2.38;;
73684;SDS011;61985;51.070;14.064;2023-08-24T10:08:12;4.53;;;2.55;;
73684;SDS011;61985;51.070;14.064;2023-08-24T10:10:39;4.75;;;2.30;;
73684;SDS011;61985;51.070;14.064;2023-08-24T10:13:08;4.97;;;2.80;;
73684;SDS011;61985;51.070;14.064;2023-08-24T10:15:39;5.55;;;2.45;;
73684;SDS011;61985;51.070;14.064;2023-08-24T10:18:11;9.45;;;2.80;;
73684;SDS011;61985;51.070;14.064;2023-08-24T10:20:38;6.70;;;2.70;;
73684;SDS011;61985;51.070;14.064;2023-08-24T10:23:04;4.13;;;2.58;;
73684;SDS011;61985;51.070;14.064;2023-08-24T10:25:30;3.63;;;2.20;;
73684;SDS011;61985;51.070;14.064;2023-08-24T10:27:55;4.07;;;2.40;;
73684;SDS011;61985;51.070;14.064;2023-08-24T10:30:22;9.65;;;2.65;;
73684;SDS011;61985;51.070;14.064;2023-08-24T10:32:48;5.40;;;2.58;;
73684;SDS011;61985;51.070;14.064;2023-08-24T10:35:18;6.72;;;3.75;;
73684;SDS011;61985;51.070;14.064;2023-08-24T10:37:45;6.50;;;2.70;;
73684;SDS011;61985;51.070;14.064;2023-08-24T10:40:11;5.13;;;2.50;;
73684;SDS011;61985;51.070;14.064;2023-08-24T10:42:44;6.03;;;2.45;;
73684;SDS011;61985;51.070;14.064;2023-08-24T10:45:12;3.17;;;2.20;;
73684;SDS011;61985;51.070;14.064;2023-08-24T10:47:45;4.50;;;2.70;;
73684;SDS011;61985;51.070;14.064;2023-08-24T10:50:12;3.85;;;2.33;;
73684;SDS011;61985;51.070;14.064;2023-08-24T10:52:37;4.72;;;2.58;;
73684;SDS011;61985;51.070;14.064;2023-08-24T10:55:04;6.40;;;2.88;;
73684;SDS011;61985;51.070;14.064;2023-08-24T10:57:52;5.20;;;2.72;;
73684;SDS011;61985;51.070;14.064;2023-08-24T11:00:25;5.30;;;2.63;;
73684;SDS011;61985;51.070;14.064;2023-08-24T11:02:55;6.70;;;3.28;;
73684;SDS011;61985;51.070;14.064;2023-08-24T11:05:21;7.15;;;3.00;;
73684;SDS011;61985;51.070;14.064;2023-08-24T11:10:23;6.57;;;2.80;;
73684;SDS011;61985;51.070;14.064;2023-08-24T11:15:37;4.50;;;2.30;;
73684;SDS011;61985;51.070;14.064;2023-08-24T11:18:14;8.90;;;2.42;;
73684;SDS011;61985;51.070;14.064;2023-08-24T11:20:48;3.53;;;2.40;;
73684;SDS011;61985;51.070;14.064;2023-08-24T11:23:18;4.55;;;2.67;;
73684;SDS011;61985;51.070;14.064;2023-08-24T11:25:45;6.35;;;2.47;;
73684;SDS011;61985;51.070;14.064;2023-08-24T11:28:12;4.70;;;2.70;;
73684;SDS011;61985;51.070;14.064;2023-08-24T11:30:42;4.35;;;2.40;;
73684;SDS011;61985;51.070;14.064;2023-08-24T11:33:07;5.53;;;2.78;;
73684;SDS011;61985;51.070;14.064;2023-08-24T11:35:36;5.55;;;2.70;;
73684;SDS011;61985;51.070;14.064;2023-08-24T11:38:02;3.50;;;2.53;;
73684;SDS011;61985;51.070;14.064;2023-08-24T11:40:28;4.82;;;2.53;;
73684;SDS011;61985;51.070;14.064;2023-08-24T11:42:54;8.13;;;2.90;;
73684;SDS011;61985;51.070;14.064;2023-08-24T11:45:22;7.88;;;2.50;;
73684;SDS011;61985;51.070;14.064;2023-08-24T11:47:49;9.02;;;3.08;;
73684;SDS011;61985;51.070;14.064;2023-08-24T11:50:16;5.85;;;2.67;;
73684;SDS011;61985;51.070;14.064;2023-08-24T11:52:42;6.10;;;2.55;;
73684;SDS011;61985;51.070;14.064;2023-08-24T11:55:07;5.07;;;2.60;;
73684;SDS011;61985;51.070;14.064;2023-08-24T11:57:34;5.25;;;2.50;;
73684;SDS011;61985;51.070;14.064;2023-08-24T11:59:59;4.47;;;2.67;;
73684;SDS011;61985;51.070;14.064;2023-08-24T12:02:25;5.75;;;2.70;;
73684;SDS011;61985;51.070;14.064;2023-08-24T12:04:51;10.75;;;2.67;;
73684;SDS011;61985;51.070;14.064;2023-08-24T12:07:16;4.40;;;2.30;;
73684;SDS011;61985;51.070;14.064;2023-08-24T12:09:42;6.93;;;2.63;;
73684;SDS011;61985;51.070;14.064;2023-08-24T12:12:17;5.32;;;2.63;;
73684;SDS011;61985;51.070;14.064;2023-08-24T12:14:44;26.48;;;3.40;;
73684;SDS011;61985;51.070;14.064;2023-08-24T12:17:10;26.40;;;3.63;;
73684;SDS011;61985;51.070;14.064;2023-08-24T12:19:36;7.05;;;3.15;;
73684;SDS011;61985;51.070;14.064;2023-08-24T12:22:01;7.85;;;2.90;;
73684;SDS011;61985;51.070;14.064;2023-08-24T12:24:27;6.18;;;2.83;;
73684;SDS011;61985;51.070;14.064;2023-08-24T12:26:56;7.50;;;2.97;;
73684;SDS011;61985;51.070;14.064;2023-08-24T12:29:27;5.65;;;2.83;;
73684;SDS011;61985;51.070;14.064;2023-08-24T12:31:56;5.65;;;2.60;;
73684;SDS011;61985;51.070;14.064;2023-08-24T12:34:23;5.50;;;2.65;;
73684;SDS011;61985;51.070;14.064;2023-08-24T12:36:48;6.70;;;2.70;;
73684;SDS011;61985;51.070;14.064;2023-08-24T12:39:13;4.18;;;2.80;;
73684;SDS011;61985;51.070;14.064;2023-08-24T12:41:40;8.75;;;2.80;;
73684;SDS011;61985;51.070;14.064;2023-08-24T12:44:06;5.45;;;2.88;;
73684;SDS011;61985;51.070;14.064;2023-08-24T12:46:32;7.95;;;2.88;;
73684;SDS011;61985;51.070;14.064;2023-08-24T12:49:01;7.65;;;2.83;;
73684;SDS011;61985;51.070;14.064;2023-08-24T12:51:27;5.35;;;3.08;;
73684;SDS011;61985;51.070;14.064;2023-08-24T12:53:53;6.47;;;2.72;;
73684;SDS011;61985;51.070;14.064;2023-08-24T12:56:18;7.13;;;2.72;;
73684;SDS011;61985;51.070;14.064;2023-08-24T12:58:43;5.85;;;2.55;;
73684;SDS011;61985;51.070;14.064;2023-08-24T13:01:10;4.13;;;2.58;;
73684;SDS011;61985;51.070;14.064;2023-08-24T13:03:37;4.85;;;2.70;;
73684;SDS011;61985;51.070;14.064;2023-08-24T13:06:04;6.00;;;2.58;;
73684;SDS011;61985;51.070;14.064;2023-08-24T13:08:30;6.05;;;2.72;;
73684;SDS011;61985;51.070;14.064;2023-08-24T13:10:55;7.88;;;2.60;;
73684;SDS011;61985;51.070;14.064;2023-08-24T13:13:21;5.82;;;2.80;;
73684;SDS011;61985;51.070;14.064;2023-08-24T13:15:48;5.68;;;3.05;;
73684;SDS011;61985;51.070;14.064;2023-08-24T13:18:14;5.22;;;2.97;;
73684;SDS011;61985;51.070;14.064;2023-08-24T13:20:40;5.05;;;2.67;;
73684;SDS011;61985;51.070;14.064;2023-08-24T13:23:05;6.18;;;2.97;;
73684;SDS011;61985;51.070;14.064;2023-08-24T13:25:31;5.93;;;3.08;;
73684;SDS011;61985;51.070;14.064;2023-08-24T13:27:57;11.25;;;3.00;;
73684;SDS011;61985;51.070;14.064;2023-08-24T13:30:22;4.93;;;2.60;;
73684;SDS011;61985;51.070;14.064;2023-08-24T13:32:48;4.90;;;2.72;;
73684;SDS011;61985;51.070;14.064;2023-08-24T13:35:13;11.57;;;2.92;;
73684;SDS011;61985;51.070;14.064;2023-08-24T13:37:38;7.93;;;2.97;;
73684;SDS011;61985;51.070;14.064;2023-08-24T13:40:04;7.65;;;3.15;;
73684;SDS011;61985;51.070;14.064;2023-08-24T13:42:30;8.45;;;4.07;;
73684;SDS011;61985;51.070;14.064;2023-08-24T13:44:55;6.93;;;2.83;;
73684;SDS011;61985;51.070;14.064;2023-08-24T13:47:21;8.02;;;3.22;;
73684;SDS011;61985;51.070;14.064;2023-08-24T13:49:46;6.05;;;3.10;;
73684;SDS011;61985;51.070;14.064;2023-08-24T13:52:12;10.73;;;3.40;;
73684;SDS011;61985;51.070;14.064;2023-08-24T13:54:37;5.35;;;3.13;;
73684;SDS011;61985;51.070;14.064;2023-08-24T13:57:03;7.15;;;3.45;;
73684;SDS011;61985;51.070;14.064;2023-08-24T13:59:28;6.20;;;3.28;;
73684;SDS011;61985;51.070;14.064;2023-08-24T14:01:54;10.68;;;3.38;;
73684;SDS011;61985;51.070;14.064;2023-08-24T14:04:19;6.25;;;3.47;;
73684;SDS011;61985;51.070;14.064;2023-08-24T14:06:44;7.68;;;3.55;;
73684;SDS011;61985;51.070;14.064;2023-08-24T14:09:10;10.20;;;3.70;;
73684;SDS011;61985;51.070;14.064;2023-08-24T14:11:35;5.13;;;3.35;;
73684;SDS011;61985;51.070;14.064;2023-08-24T14:14:00;6.65;;;3.88;;
73684;SDS011;61985;51.070;14.064;2023-08-24T14:16:26;8.63;;;3.90;;
73684;SDS011;61985;51.070;14.064;2023-08-24T14:18:52;11.88;;;4.38;;
73684;SDS011;61985;51.070;14.064;2023-08-24T14:21:18;7.43;;;3.88;;
73684;SDS011;61985;51.070;14.064;2023-08-24T14:23:45;5.72;;;3.50;;
73684;SDS011;61985;51.070;14.064;2023-08-24T14:26:10;6.65;;;3.80;;
73684;SDS011;61985;51.070;14.064;2023-08-24T14:28:52;5.28;;;3.67;;
73684;SDS011;61985;51.070;14.064;2023-08-24T14:31:23;10.55;;;3.67;;
73684;SDS011;61985;51.070;14.064;2023-08-24T14:33:52;8.73;;;3.67;;
73684;SDS011;61985;51.070;14.064;2023-08-24T14:36:18;5.60;;;3.53;;
73684;SDS011;61985;51.070;14.064;2023-08-24T14:38:45;6.93;;;3.58;;
73684;SDS011;61985;51.070;14.064;2023-08-24T14:41:11;6.40;;;3.30;;
73684;SDS011;61985;51.070;14.064;2023-08-24T14:43:38;6.93;;;3.28;;
73684;SDS011;61985;51.070;14.064;2023-08-24T14:46:04;7.15;;;4.20;;